sensor_id;sensor_type;location;lat;lon;timestamp;P1;durP1;ratioP1;P2;durP2;ratioP2
61200;SDS011;47065;52.898;6.992;2024-03-23T00:53:44;42.40;;;7.93;;
61200;SDS011;47065;52.898;6.992;2024-03-23T00:56:10;21.83;;;6.05;;
61200;SDS011;47065;52.898;6.992;2024-03-23T00:58:36;34.63;;;8.57;;
61200;SDS011;47065;52.898;6.992;2024-03-23T01:01:01;54.70;;;8.90;;
61200;SDS011;47065;52.898;6.992;2024-03-23T01:03:29;41.10;;;9.30;;
61200;SDS011;47065;52.898;6.992;2024-03-23T01:05:58;42.75;;;9.07;;
61200;SDS011;47065;52.898;6.992;2024-03-23T01:08:27;44.47;;;8.40;;
61200;SDS011;47065;52.898;6.992;2024-03-23T01:10:54;39.95;;;7.57;;
61200;SDS011;47065;52.898;6.992;2024-03-23T01:13:21;41.42;;;8.50;;
61200;SDS011;47065;52.898;6.992;2024-03-23T01:15:53;40.63;;;10.27;;
61200;SDS011;47065;52.898;6.992;2024-03-23T01:18:21;33.95;;;8.25;;
61200;SDS011;47065;52.898;6.992;2024-03-23T01:20:47;41.65;;;8.95;;
61200;SDS011;47065;52.898;6.992;2024-03-23T01:23:13;29.70;;;7.78;;
61200;SDS011;47065;52.898;6.992;2024-03-23T01:25:39;31.17;;;7.10;;
61200;SDS011;47065;52.898;6.992;2024-03-23T01:28:05;31.55;;;7.68;;
61200;SDS011;47065;52.898;6.992;2024-03-23T01:30:31;35.83;;;10.63;;
61200;SDS011;47065;52.898;6.992;2024-03-23T01:32:57;40.17;;;9.60;;
61200;SDS011;47065;52.898;6.992;2024-03-23T01:35:23;29.52;;;6.82;;
61200;SDS011;47065;52.898;6.992;2024-03-23T01:37:49;34.33;;;9.13;;
61200;SDS011;47065;52.898;6.992;2024-03-23T01:40:16;35.00;;;7.88;;
61200;SDS011;47065;52.898;6.992;2024-03-23T01:42:41;46.72;;;7.00;;
61200;SDS011;47065;52.898;6.992;2024-03-23T01:45:07;32.33;;;8.38;;
61200;SDS011;47065;52.898;6.992;2024-03-23T01:47:34;35.10;;;6.97;;
61200;SDS011;47065;52.898;6.992;2024-03-23T01:50:01;31.35;;;7.63;;
61200;SDS011;47065;52.898;6.992;2024-03-23T01:52:26;34.70;;;9.18;;
61200;SDS011;47065;52.898;6.992;2024-03-23T01:54:52;35.13;;;8.23;;
61200;SDS011;47065;52.898;6.992;2024-03-23T01:57:19;36.03;;;7.78;;
61200;SDS011;47065;52.898;6.992;2024-03-23T01:59:46;35.78;;;7.82;;
61200;SDS011;47065;52.898;6.992;2024-03-23T02:02:12;32.60;;;8.35;;
61200;SDS011;47065;52.898;6.992;2024-03-23T02:04:37;30.05;;;9.00;;
61200;SDS011;47065;52.898;6.992;2024-03-23T02:07:04;32.22;;;8.10;;
61200;SDS011;47065;52.898;6.992;2024-03-23T02:09:31;30.05;;;7.57;;
61200;SDS011;47065;52.898;6.992;2024-03-23T02:11:57;52.00;;;10.13;;
61200;SDS011;47065;52.898;6.992;2024-03-23T02:14:23;36.50;;;9.15;;
61200;SDS011;47065;52.898;6.992;2024-03-23T02:16:49;34.35;;;7.88;;
61200;SDS011;47065;52.898;6.992;2024-03-23T02:19:14;31.92;;;7.72;;
61200;SDS011;47065;52.898;6.992;2024-03-23T02:21:40;36.95;;;7.47;;
61200;SDS011;47065;52.898;6.992;2024-03-23T02:24:05;35.47;;;9.15;;
61200;SDS011;47065;52.898;6.992;2024-03-23T02:26:31;45.58;;;8.55;;
61200;SDS011;47065;52.898;6.992;2024-03-23T02:28:57;48.97;;;8.85;;
61200;SDS011;47065;52.898;6.992;2024-03-23T02:31:22;30.90;;;7.80;;
61200;SDS011;47065;52.898;6.992;2024-03-23T02:33:48;37.58;;;8.93;;
61200;SDS011;47065;52.898;6.992;2024-03-23T02:36:13;34.28;;;8.32;;
61200;SDS011;47065;52.898;6.992;2024-03-23T02:38:39;28.77;;;8.80;;
61200;SDS011;47065;52.898;6.992;2024-03-23T02:41:05;46.88;;;8.70;;
61200;SDS011;47065;52.898;6.992;2024-03-23T02:43:30;43.13;;;9.55;;
61200;SDS011;47065;52.898;6.992;2024-03-23T02:45:56;30.58;;;7.88;;
61200;SDS011;47065;52.898;6.992;2024-03-23T02:48:22;45.55;;;9.25;;
61200;SDS011;47065;52.898;6.992;2024-03-23T02:50:49;34.53;;;8.00;;
61200;SDS011;47065;52.898;6.992;2024-03-23T02:53:15;33.30;;;8.55;;
61200;SDS011;47065;52.898;6.992;2024-03-23T02:55:41;47.10;;;9.60;;
61200;SDS011;47065;52.898;6.992;2024-03-23T02:58:06;30.13;;;8.80;;
61200;SDS011;47065;52.898;6.992;2024-03-23T03:00:32;35.38;;;8.95;;
61200;SDS011;47065;52.898;6.992;2024-03-23T03:02:57;35.78;;;8.15;;
61200;SDS011;47065;52.898;6.992;2024-03-23T03:05:23;38.10;;;9.10;;
61200;SDS011;47065;52.898;6.992;2024-03-23T03:07:49;49.60;;;9.95;;
61200;SDS011;47065;52.898;6.992;2024-03-23T03:10:14;29.65;;;8.45;;
61200;SDS011;47065;52.898;6.992;2024-03-23T03:12:40;37.25;;;9.65;;
61200;SDS011;47065;52.898;6.992;2024-03-23T03:15:07;33.97;;;9.27;;
61200;SDS011;47065;52.898;6.992;2024-03-23T03:17:34;28.13;;;8.63;;
61200;SDS011;47065;52.898;6.992;2024-03-23T03:20:00;44.05;;;10.13;;
61200;SDS011;47065;52.898;6.992;2024-03-23T03:22:25;33.78;;;8.52;;
61200;SDS011;47065;52.898;6.992;2024-03-23T03:24:51;37.67;;;7.20;;
61200;SDS011;47065;52.898;6.992;2024-03-23T03:27:17;47.03;;;9.82;;
61200;SDS011;47065;52.898;6.992;2024-03-23T03:29:42;28.15;;;7.50;;
61200;SDS011;47065;52.898;6.992;2024-03-23T03:32:08;35.10;;;8.02;;
61200;SDS011;47065;52.898;6.992;2024-03-23T03:34:34;38.50;;;8.05;;
61200;SDS011;47065;52.898;6.992;2024-03-23T03:36:59;36.20;;;7.82;;
61200;SDS011;47065;52.898;6.992;2024-03-23T03:39:25;22.42;;;7.07;;
61200;SDS011;47065;52.898;6.992;2024-03-23T03:41:51;35.50;;;7.40;;
61200;SDS011;47065;52.898;6.992;2024-03-23T03:44:17;26.70;;;7.10;;
61200;SDS011;47065;52.898;6.992;2024-03-23T03:46:42;23.40;;;6.88;;
61200;SDS011;47065;52.898;6.992;2024-03-23T03:49:08;37.00;;;7.70;;
61200;SDS011;47065;52.898;6.992;2024-03-23T03:51:34;24.38;;;7.45;;
61200;SDS011;47065;52.898;6.992;2024-03-23T03:54:00;25.33;;;6.72;;
61200;SDS011;47065;52.898;6.992;2024-03-23T03:56:25;28.20;;;5.75;;
61200;SDS011;47065;52.898;6.992;2024-03-23T03:58:52;36.25;;;8.40;;
61200;SDS011;47065;52.898;6.992;2024-03-23T04:01:17;27.63;;;6.50;;
61200;SDS011;47065;52.898;6.992;2024-03-23T04:03:43;19.73;;;6.20;;
61200;SDS011;47065;52.898;6.992;2024-03-23T04:06:11;30.30;;;6.53;;
61200;SDS011;47065;52.898;6.992;2024-03-23T04:08:37;30.38;;;7.15;;
61200;SDS011;47065;52.898;6.992;2024-03-23T04:11:02;28.55;;;5.90;;
61200;SDS011;47065;52.898;6.992;2024-03-23T04:13:28;23.38;;;5.93;;
61200;SDS011;47065;52.898;6.992;2024-03-23T04:15:54;30.08;;;8.23;;
61200;SDS011;47065;52.898;6.992;2024-03-23T04:18:21;31.23;;;8.38;;
61200;SDS011;47065;52.898;6.992;2024-03-23T04:20:47;34.00;;;7.35;;
61200;SDS011;47065;52.898;6.992;2024-03-23T04:23:16;19.65;;;7.15;;
61200;SDS011;47065;52.898;6.992;2024-03-23T04:25:42;21.13;;;6.05;;
61200;SDS011;47065;52.898;6.992;2024-03-23T04:28:07;36.22;;;7.50;;
61200;SDS011;47065;52.898;6.992;2024-03-23T04:30:33;28.33;;;6.20;;
61200;SDS011;47065;52.898;6.992;2024-03-23T04:32:59;35.28;;;7.45;;
61200;SDS011;47065;52.898;6.992;2024-03-23T04:35:26;21.58;;;5.60;;
61200;SDS011;47065;52.898;6.992;2024-03-23T04:37:52;35.83;;;8.75;;
61200;SDS011;47065;52.898;6.992;2024-03-23T04:40:18;24.15;;;6.22;;
61200;SDS011;47065;52.898;6.992;2024-03-23T04:42:44;26.17;;;8.00;;
61200;SDS011;47065;52.898;6.992;2024-03-23T04:45:10;22.70;;;6.28;;
61200;SDS011;47065;52.898;6.992;2024-03-23T04:47:36;29.27;;;6.93;;
61200;SDS011;47065;52.898;6.992;2024-03-23T04:50:04;31.17;;;7.07;;
61200;SDS011;47065;52.898;6.992;2024-03-23T04:52:30;29.05;;;7.65;;
61200;SDS011;47065;52.898;6.992;2024-03-23T04:54:56;27.55;;;6.80;;
61200;SDS011;47065;52.898;6.992;2024-03-23T04:57:21;24.35;;;5.53;;
61200;SDS011;47065;52.898;6.992;2024-03-23T04:59:47;31.60;;;8.30;;
61200;SDS011;47065;52.898;6.992;2024-03-23T05:02:13;26.08;;;6.55;;
61200;SDS011;47065;52.898;6.992;2024-03-23T05:04:40;22.98;;;7.00;;
61200;SDS011;47065;52.898;6.992;2024-03-23T05:07:08;31.30;;;6.50;;
61200;SDS011;47065;52.898;6.992;2024-03-23T05:09:34;32.30;;;8.85;;
61200;SDS011;47065;52.898;6.992;2024-03-23T05:12:00;30.98;;;7.53;;
61200;SDS011;47065;52.898;6.992;2024-03-23T05:14:26;22.20;;;5.90;;
61200;SDS011;47065;52.898;6.992;2024-03-23T05:16:52;20.60;;;6.72;;
61200;SDS011;47065;52.898;6.992;2024-03-23T05:19:18;19.90;;;5.28;;
61200;SDS011;47065;52.898;6.992;2024-03-23T05:21:43;33.85;;;7.20;;
61200;SDS011;47065;52.898;6.992;2024-03-23T05:24:09;21.90;;;5.80;;
61200;SDS011;47065;52.898;6.992;2024-03-23T05:26:35;28.58;;;5.28;;
61200;SDS011;47065;52.898;6.992;2024-03-23T05:29:01;21.20;;;5.50;;
61200;SDS011;47065;52.898;6.992;2024-03-23T05:31:28;31.95;;;8.10;;
61200;SDS011;47065;52.898;6.992;2024-03-23T05:33:55;29.38;;;7.00;;
61200;SDS011;47065;52.898;6.992;2024-03-23T05:36:21;22.00;;;7.25;;
61200;SDS011;47065;52.898;6.992;2024-03-23T05:38:47;24.73;;;6.95;;
61200;SDS011;47065;52.898;6.992;2024-03-23T05:41:13;29.75;;;6.97;;
61200;SDS011;47065;52.898;6.992;2024-03-23T05:43:39;27.48;;;6.03;;
61200;SDS011;47065;52.898;6.992;2024-03-23T05:46:05;19.95;;;5.95;;
61200;SDS011;47065;52.898;6.992;2024-03-23T05:48:31;30.33;;;6.40;;
61200;SDS011;47065;52.898;6.992;2024-03-23T05:50:57;26.38;;;5.97;;
61200;SDS011;47065;52.898;6.992;2024-03-23T05:53:23;31.23;;;7.35;;
61200;SDS011;47065;52.898;6.992;2024-03-23T05:55:49;25.92;;;7.15;;
61200;SDS011;47065;52.898;6.992;2024-03-23T05:58:18;21.52;;;5.45;;
61200;SDS011;47065;52.898;6.992;2024-03-23T06:00:45;25.25;;;5.22;;
61200;SDS011;47065;52.898;6.992;2024-03-23T06:03:11;20.45;;;6.35;;
61200;SDS011;47065;52.898;6.992;2024-03-23T06:05:37;32.45;;;6.97;;
61200;SDS011;47065;52.898;6.992;2024-03-23T06:08:03;21.27;;;4.93;;
61200;SDS011;47065;52.898;6.992;2024-03-23T06:10:29;25.63;;;6.85;;
61200;SDS011;47065;52.898;6.992;2024-03-23T06:12:56;27.25;;;5.68;;
61200;SDS011;47065;52.898;6.992;2024-03-23T06:15:23;24.77;;;6.18;;
61200;SDS011;47065;52.898;6.992;2024-03-23T06:17:49;25.80;;;7.18;;
61200;SDS011;47065;52.898;6.992;2024-03-23T06:20:15;25.05;;;6.25;;
61200;SDS011;47065;52.898;6.992;2024-03-23T06:22:40;30.30;;;6.18;;
61200;SDS011;47065;52.898;6.992;2024-03-23T06:25:06;30.63;;;6.20;;
61200;SDS011;47065;52.898;6.992;2024-03-23T06:27:32;25.70;;;5.75;;
61200;SDS011;47065;52.898;6.992;2024-03-23T06:29:58;23.23;;;6.03;;
61200;SDS011;47065;52.898;6.992;2024-03-23T06:32:25;20.13;;;4.75;;
61200;SDS011;47065;52.898;6.992;2024-03-23T06:34:50;23.33;;;6.32;;
61200;SDS011;47065;52.898;6.992;2024-03-23T06:37:16;22.48;;;5.65;;
61200;SDS011;47065;52.898;6.992;2024-03-23T06:39:41;32.85;;;7.50;;
61200;SDS011;47065;52.898;6.992;2024-03-23T06:42:07;19.60;;;5.88;;
61200;SDS011;47065;52.898;6.992;2024-03-23T06:44:33;18.80;;;5.20;;
61200;SDS011;47065;52.898;6.992;2024-03-23T06:46:59;14.68;;;3.40;;
61200;SDS011;47065;52.898;6.992;2024-03-23T06:49:24;29.15;;;5.65;;
61200;SDS011;47065;52.898;6.992;2024-03-23T06:51:50;25.00;;;4.97;;
61200;SDS011;47065;52.898;6.992;2024-03-23T06:54:17;15.52;;;4.72;;
61200;SDS011;47065;52.898;6.992;2024-03-23T06:56:45;15.43;;;3.83;;
61200;SDS011;47065;52.898;6.992;2024-03-23T06:59:10;19.27;;;4.05;;
61200;SDS011;47065;52.898;6.992;2024-03-23T07:01:36;15.05;;;3.55;;
61200;SDS011;47065;52.898;6.992;2024-03-23T07:04:02;14.52;;;3.45;;
61200;SDS011;47065;52.898;6.992;2024-03-23T07:06:29;14.05;;;3.20;;
61200;SDS011;47065;52.898;6.992;2024-03-23T07:08:55;17.88;;;3.28;;
61200;SDS011;47065;52.898;6.992;2024-03-23T07:11:21;17.55;;;4.32;;
61200;SDS011;47065;52.898;6.992;2024-03-23T07:13:50;11.15;;;3.20;;
61200;SDS011;47065;52.898;6.992;2024-03-23T07:16:17;5.78;;;1.95;;
61200;SDS011;47065;52.898;6.992;2024-03-23T07:18:43;6.85;;;3.03;;
61200;SDS011;47065;52.898;6.992;2024-03-23T07:21:08;8.52;;;2.00;;
61200;SDS011;47065;52.898;6.992;2024-03-23T07:23:34;10.65;;;2.78;;
61200;SDS011;47065;52.898;6.992;2024-03-23T07:26:00;11.38;;;2.40;;
61200;SDS011;47065;52.898;6.992;2024-03-23T07:28:27;11.57;;;2.75;;
61200;SDS011;47065;52.898;6.992;2024-03-23T07:33:36;9.00;;;3.05;;
61200;SDS011;47065;52.898;6.992;2024-03-23T07:36:03;11.20;;;4.03;;
61200;SDS011;47065;52.898;6.992;2024-03-23T07:38:31;14.40;;;2.88;;
61200;SDS011;47065;52.898;6.992;2024-03-23T07:41:06;11.50;;;2.50;;
61200;SDS011;47065;52.898;6.992;2024-03-23T07:43:33;15.48;;;2.83;;
61200;SDS011;47065;52.898;6.992;2024-03-23T07:45:59;11.57;;;2.78;;
61200;SDS011;47065;52.898;6.992;2024-03-23T07:48:26;9.77;;;2.63;;
61200;SDS011;47065;52.898;6.992;2024-03-23T07:50:59;10.88;;;2.72;;
61200;SDS011;47065;52.898;6.992;2024-03-23T07:53:27;36.97;;;4.57;;
61200;SDS011;47065;52.898;6.992;2024-03-23T07:56:01;9.63;;;2.35;;
61200;SDS011;47065;52.898;6.992;2024-03-23T07:58:28;9.10;;;2.05;;
61200;SDS011;47065;52.898;6.992;2024-03-23T08:00:54;14.10;;;2.75;;
61200;SDS011;47065;52.898;6.992;2024-03-23T08:03:20;11.57;;;2.40;;
61200;SDS011;47065;52.898;6.992;2024-03-23T08:05:46;8.25;;;2.47;;
61200;SDS011;47065;52.898;6.992;2024-03-23T08:08:12;16.98;;;3.50;;
61200;SDS011;47065;52.898;6.992;2024-03-23T08:10:47;6.47;;;1.90;;
61200;SDS011;47065;52.898;6.992;2024-03-23T08:13:16;3.78;;;1.63;;
61200;SDS011;47065;52.898;6.992;2024-03-23T08:15:43;7.38;;;1.98;;
61200;SDS011;47065;52.898;6.992;2024-03-23T08:18:09;6.45;;;2.30;;
61200;SDS011;47065;52.898;6.992;2024-03-23T08:20:38;4.68;;;2.08;;
61200;SDS011;47065;52.898;6.992;2024-03-23T08:23:07;5.15;;;1.35;;
61200;SDS011;47065;52.898;6.992;2024-03-23T08:25:34;5.50;;;1.38;;
61200;SDS011;47065;52.898;6.992;2024-03-23T08:28:00;10.35;;;1.98;;
61200;SDS011;47065;52.898;6.992;2024-03-23T08:30:27;7.95;;;1.80;;
61200;SDS011;47065;52.898;6.992;2024-03-23T08:32:53;5.35;;;1.10;;
61200;SDS011;47065;52.898;6.992;2024-03-23T08:35:19;4.55;;;1.38;;
61200;SDS011;47065;52.898;6.992;2024-03-23T08:37:45;3.80;;;1.30;;
61200;SDS011;47065;52.898;6.992;2024-03-23T08:40:10;9.05;;;2.17;;
61200;SDS011;47065;52.898;6.992;2024-03-23T08:42:36;6.80;;;1.67;;
61200;SDS011;47065;52.898;6.992;2024-03-23T08:45:02;6.97;;;1.52;;
61200;SDS011;47065;52.898;6.992;2024-03-23T08:47:28;5.20;;;1.40;;
61200;SDS011;47065;52.898;6.992;2024-03-23T08:49:53;6.25;;;1.52;;
61200;SDS011;47065;52.898;6.992;2024-03-23T08:52:20;5.80;;;1.00;;
61200;SDS011;47065;52.898;6.992;2024-03-23T08:54:48;5.10;;;1.30;;
61200;SDS011;47065;52.898;6.992;2024-03-23T08:57:13;5.00;;;2.47;;
61200;SDS011;47065;52.898;6.992;2024-03-23T08:59:39;6.15;;;1.63;;
61200;SDS011;47065;52.898;6.992;2024-03-23T09:02:05;6.43;;;1.30;;
61200;SDS011;47065;52.898;6.992;2024-03-23T09:04:30;5.13;;;1.27;;
61200;SDS011;47065;52.898;6.992;2024-03-23T09:06:56;6.80;;;1.85;;
61200;SDS011;47065;52.898;6.992;2024-03-23T09:09:24;5.63;;;1.25;;
61200;SDS011;47065;52.898;6.992;2024-03-23T09:11:49;3.92;;;1.15;;
61200;SDS011;47065;52.898;6.992;2024-03-23T09:14:15;6.95;;;2.35;;
61200;SDS011;47065;52.898;6.992;2024-03-23T09:16:40;4.03;;;1.30;;
61200;SDS011;47065;52.898;6.992;2024-03-23T09:19:06;5.68;;;1.38;;
61200;SDS011;47065;52.898;6.992;2024-03-23T09:21:32;14.57;;;1.58;;
61200;SDS011;47065;52.898;6.992;2024-03-23T09:23:58;10.27;;;2.40;;
61200;SDS011;47065;52.898;6.992;2024-03-23T09:26:23;5.63;;;1.30;;
61200;SDS011;47065;52.898;6.992;2024-03-23T09:28:49;4.40;;;1.20;;
61200;SDS011;47065;52.898;6.992;2024-03-23T09:31:15;6.63;;;1.55;;
61200;SDS011;47065;52.898;6.992;2024-03-23T09:33:41;5.72;;;1.33;;
61200;SDS011;47065;52.898;6.992;2024-03-23T09:36:06;5.47;;;1.65;;
61200;SDS011;47065;52.898;6.992;2024-03-23T09:38:33;8.70;;;1.30;;
61200;SDS011;47065;52.898;6.992;2024-03-23T09:40:58;6.00;;;1.67;;
61200;SDS011;47065;52.898;6.992;2024-03-23T09:43:24;8.52;;;2.80;;
61200;SDS011;47065;52.898;6.992;2024-03-23T09:45:51;5.57;;;1.73;;
61200;SDS011;47065;52.898;6.992;2024-03-23T09:48:17;11.52;;;2.40;;
61200;SDS011;47065;52.898;6.992;2024-03-23T09:50:43;9.80;;;2.03;;
61200;SDS011;47065;52.898;6.992;2024-03-23T09:53:10;6.97;;;2.33;;
61200;SDS011;47065;52.898;6.992;2024-03-23T09:55:40;5.70;;;1.42;;
61200;SDS011;47065;52.898;6.992;2024-03-23T09:58:08;11.07;;;2.50;;
61200;SDS011;47065;52.898;6.992;2024-03-23T10:00:38;10.10;;;3.20;;
61200;SDS011;47065;52.898;6.992;2024-03-23T10:03:04;9.27;;;2.30;;
61200;SDS011;47065;52.898;6.992;2024-03-23T10:05:31;10.77;;;2.15;;
61200;SDS011;47065;52.898;6.992;2024-03-23T10:07:59;10.23;;;2.85;;
61200;SDS011;47065;52.898;6.992;2024-03-23T10:10:42;8.90;;;2.00;;
61200;SDS011;47065;52.898;6.992;2024-03-23T10:13:08;9.15;;;1.98;;
61200;SDS011;47065;52.898;6.992;2024-03-23T10:15:35;8.93;;;1.88;;
61200;SDS011;47065;52.898;6.992;2024-03-23T10:18:20;11.63;;;2.90;;
61200;SDS011;47065;52.898;6.992;2024-03-23T10:21:06;11.05;;;2.38;;
61200;SDS011;47065;52.898;6.992;2024-03-23T10:23:35;11.48;;;3.03;;
61200;SDS011;47065;52.898;6.992;2024-03-23T10:26:20;7.82;;;2.25;;
61200;SDS011;47065;52.898;6.992;2024-03-23T10:28:57;9.32;;;2.38;;
61200;SDS011;47065;52.898;6.992;2024-03-23T10:31:24;3.83;;;1.13;;
61200;SDS011;47065;52.898;6.992;2024-03-23T10:33:50;7.82;;;2.08;;
61200;SDS011;47065;52.898;6.992;2024-03-23T10:36:19;11.85;;;1.73;;
61200;SDS011;47065;52.898;6.992;2024-03-23T10:38:45;5.72;;;1.25;;
61200;SDS011;47065;52.898;6.992;2024-03-23T10:41:12;5.57;;;2.05;;
61200;SDS011;47065;52.898;6.992;2024-03-23T10:43:38;8.88;;;1.73;;
61200;SDS011;47065;52.898;6.992;2024-03-23T10:46:04;14.05;;;1.58;;
61200;SDS011;47065;52.898;6.992;2024-03-23T10:48:33;2.85;;;1.45;;
61200;SDS011;47065;52.898;6.992;2024-03-23T10:50:59;7.22;;;1.30;;
61200;SDS011;47065;52.898;6.992;2024-03-23T10:53:27;10.88;;;2.80;;
61200;SDS011;47065;52.898;6.992;2024-03-23T10:55:54;5.28;;;1.80;;
61200;SDS011;47065;52.898;6.992;2024-03-23T10:58:21;8.82;;;1.70;;
61200;SDS011;47065;52.898;6.992;2024-03-23T11:00:53;9.93;;;2.10;;
61200;SDS011;47065;52.898;6.992;2024-03-23T11:03:35;6.28;;;1.55;;
61200;SDS011;47065;52.898;6.992;2024-03-23T11:06:02;9.23;;;1.92;;
61200;SDS011;47065;52.898;6.992;2024-03-23T11:08:46;11.55;;;2.30;;
61200;SDS011;47065;52.898;6.992;2024-03-23T11:11:17;7.13;;;2.40;;
61200;SDS011;47065;52.898;6.992;2024-03-23T11:13:44;3.28;;;1.20;;
61200;SDS011;47065;52.898;6.992;2024-03-23T11:16:13;8.70;;;1.50;;
61200;SDS011;47065;52.898;6.992;2024-03-23T11:18:42;5.03;;;1.55;;
61200;SDS011;47065;52.898;6.992;2024-03-23T11:21:09;8.45;;;1.85;;
61200;SDS011;47065;52.898;6.992;2024-03-23T11:23:36;5.57;;;1.80;;
61200;SDS011;47065;52.898;6.992;2024-03-23T11:26:01;3.83;;;1.38;;
61200;SDS011;47065;52.898;6.992;2024-03-23T11:28:27;5.15;;;1.10;;
61200;SDS011;47065;52.898;6.992;2024-03-23T11:30:53;2.35;;;0.82;;
61200;SDS011;47065;52.898;6.992;2024-03-23T11:33:19;5.78;;;0.50;;
61200;SDS011;47065;52.898;6.992;2024-03-23T11:35:44;2.70;;;0.70;;
61200;SDS011;47065;52.898;6.992;2024-03-23T11:38:11;3.67;;;0.77;;
61200;SDS011;47065;52.898;6.992;2024-03-23T11:40:44;4.93;;;0.80;;
61200;SDS011;47065;52.898;6.992;2024-03-23T11:43:14;1.85;;;1.10;;
61200;SDS011;47065;52.898;6.992;2024-03-23T11:48:15;7.18;;;1.40;;
61200;SDS011;47065;52.898;6.992;2024-03-23T11:50:46;3.60;;;0.85;;
61200;SDS011;47065;52.898;6.992;2024-03-23T11:53:20;5.10;;;0.98;;
61200;SDS011;47065;52.898;6.992;2024-03-23T11:55:55;3.75;;;1.40;;
61200;SDS011;47065;52.898;6.992;2024-03-23T11:58:22;10.45;;;2.00;;
61200;SDS011;47065;52.898;6.992;2024-03-23T12:00:50;4.90;;;1.48;;
61200;SDS011;47065;52.898;6.992;2024-03-23T12:03:22;7.00;;;1.58;;
61200;SDS011;47065;52.898;6.992;2024-03-23T12:05:53;8.93;;;1.50;;
61200;SDS011;47065;52.898;6.992;2024-03-23T12:08:24;5.40;;;1.92;;
61200;SDS011;47065;52.898;6.992;2024-03-23T12:11:06;8.27;;;1.45;;
61200;SDS011;47065;52.898;6.992;2024-03-23T12:13:39;6.45;;;1.52;;
61200;SDS011;47065;52.898;6.992;2024-03-23T12:18:43;6.10;;;2.08;;
61200;SDS011;47065;52.898;6.992;2024-03-23T12:21:10;4.60;;;1.15;;
61200;SDS011;47065;52.898;6.992;2024-03-23T12:23:35;15.70;;;2.15;;
61200;SDS011;47065;52.898;6.992;2024-03-23T12:26:03;4.25;;;1.90;;
61200;SDS011;47065;52.898;6.992;2024-03-23T12:28:29;6.38;;;1.42;;
61200;SDS011;47065;52.898;6.992;2024-03-23T12:30:55;8.75;;;1.98;;
61200;SDS011;47065;52.898;6.992;2024-03-23T12:33:21;7.45;;;1.95;;
61200;SDS011;47065;52.898;6.992;2024-03-23T12:35:50;4.22;;;1.45;;
61200;SDS011;47065;52.898;6.992;2024-03-23T12:38:16;11.85;;;2.50;;
61200;SDS011;47065;52.898;6.992;2024-03-23T12:40:46;6.22;;;1.48;;
61200;SDS011;47065;52.898;6.992;2024-03-23T12:43:15;4.80;;;2.13;;
61200;SDS011;47065;52.898;6.992;2024-03-23T12:45:41;5.13;;;1.23;;
61200;SDS011;47065;52.898;6.992;2024-03-23T12:48:11;4.15;;;0.80;;
61200;SDS011;47065;52.898;6.992;2024-03-23T12:50:37;1.23;;;1.13;;
61200;SDS011;47065;52.898;6.992;2024-03-23T12:53:03;5.50;;;0.70;;
61200;SDS011;47065;52.898;6.992;2024-03-23T12:55:29;4.32;;;0.90;;
61200;SDS011;47065;52.898;6.992;2024-03-23T12:57:54;4.15;;;1.00;;
61200;SDS011;47065;52.898;6.992;2024-03-23T13:00:20;5.15;;;1.35;;
61200;SDS011;47065;52.898;6.992;2024-03-23T13:02:45;3.00;;;0.90;;
61200;SDS011;47065;52.898;6.992;2024-03-23T13:05:11;7.63;;;1.70;;
61200;SDS011;47065;52.898;6.992;2024-03-23T13:07:37;7.65;;;1.90;;
61200;SDS011;47065;52.898;6.992;2024-03-23T13:10:03;5.28;;;1.85;;
61200;SDS011;47065;52.898;6.992;2024-03-23T13:12:30;8.43;;;2.45;;
61200;SDS011;47065;52.898;6.992;2024-03-23T13:14:56;16.85;;;2.67;;
61200;SDS011;47065;52.898;6.992;2024-03-23T13:17:21;10.52;;;2.40;;
61200;SDS011;47065;52.898;6.992;2024-03-23T13:19:47;7.05;;;1.90;;
61200;SDS011;47065;52.898;6.992;2024-03-23T13:22:13;8.48;;;2.63;;
61200;SDS011;47065;52.898;6.992;2024-03-23T13:24:38;9.90;;;2.28;;
61200;SDS011;47065;52.898;6.992;2024-03-23T13:27:04;8.05;;;2.78;;
61200;SDS011;47065;52.898;6.992;2024-03-23T13:29:32;5.47;;;1.92;;
61200;SDS011;47065;52.898;6.992;2024-03-23T13:31:59;7.63;;;2.28;;
61200;SDS011;47065;52.898;6.992;2024-03-23T13:34:25;10.95;;;2.03;;
61200;SDS011;47065;52.898;6.992;2024-03-23T13:36:50;12.25;;;2.25;;
61200;SDS011;47065;52.898;6.992;2024-03-23T13:39:16;6.05;;;2.38;;
61200;SDS011;47065;52.898;6.992;2024-03-23T13:44:09;8.57;;;2.60;;
61200;SDS011;47065;52.898;6.992;2024-03-23T13:46:36;7.65;;;2.55;;
61200;SDS011;47065;52.898;6.992;2024-03-23T13:49:03;7.18;;;2.10;;
61200;SDS011;47065;52.898;6.992;2024-03-23T13:51:29;7.70;;;2.90;;
61200;SDS011;47065;52.898;6.992;2024-03-23T13:53:55;8.82;;;2.08;;
61200;SDS011;47065;52.898;6.992;2024-03-23T13:56:24;10.23;;;2.22;;
61200;SDS011;47065;52.898;6.992;2024-03-23T13:58:50;6.65;;;1.77;;
61200;SDS011;47065;52.898;6.992;2024-03-23T14:01:16;8.98;;;3.47;;
61200;SDS011;47065;52.898;6.992;2024-03-23T14:03:42;8.70;;;1.80;;
61200;SDS011;47065;52.898;6.992;2024-03-23T14:06:08;13.75;;;3.17;;
61200;SDS011;47065;52.898;6.992;2024-03-23T14:08:35;12.15;;;3.42;;
61200;SDS011;47065;52.898;6.992;2024-03-23T14:11:04;10.48;;;2.83;;
61200;SDS011;47065;52.898;6.992;2024-03-23T14:13:30;6.43;;;1.90;;
61200;SDS011;47065;52.898;6.992;2024-03-23T14:15:57;9.40;;;3.17;;
61200;SDS011;47065;52.898;6.992;2024-03-23T14:18:23;8.90;;;1.80;;
61200;SDS011;47065;52.898;6.992;2024-03-23T14:20:49;8.73;;;2.45;;
61200;SDS011;47065;52.898;6.992;2024-03-23T14:23:15;12.40;;;2.47;;
61200;SDS011;47065;52.898;6.992;2024-03-23T14:25:42;7.43;;;1.60;;
61200;SDS011;47065;52.898;6.992;2024-03-23T14:28:07;6.05;;;2.20;;
61200;SDS011;47065;52.898;6.992;2024-03-23T14:30:39;8.13;;;1.33;;
61200;SDS011;47065;52.898;6.992;2024-03-23T14:33:05;5.95;;;1.25;;
61200;SDS011;47065;52.898;6.992;2024-03-23T14:35:30;11.65;;;1.75;;
61200;SDS011;47065;52.898;6.992;2024-03-23T14:37:58;7.53;;;2.35;;
61200;SDS011;47065;52.898;6.992;2024-03-23T14:40:24;6.13;;;1.88;;
61200;SDS011;47065;52.898;6.992;2024-03-23T14:42:52;15.15;;;2.63;;
61200;SDS011;47065;52.898;6.992;2024-03-23T14:45:19;13.98;;;3.17;;
61200;SDS011;47065;52.898;6.992;2024-03-23T14:47:46;8.07;;;2.28;;
61200;SDS011;47065;52.898;6.992;2024-03-23T14:50:11;4.97;;;2.35;;
61200;SDS011;47065;52.898;6.992;2024-03-23T14:52:40;8.45;;;1.70;;
61200;SDS011;47065;52.898;6.992;2024-03-23T14:55:07;6.15;;;1.55;;
61200;SDS011;47065;52.898;6.992;2024-03-23T14:57:34;12.48;;;1.90;;
61200;SDS011;47065;52.898;6.992;2024-03-23T15:00:00;6.88;;;2.30;;
61200;SDS011;47065;52.898;6.992;2024-03-23T15:02:26;10.50;;;2.50;;
61200;SDS011;47065;52.898;6.992;2024-03-23T15:04:53;12.05;;;4.10;;
61200;SDS011;47065;52.898;6.992;2024-03-23T15:07:19;5.25;;;1.98;;
61200;SDS011;47065;52.898;6.992;2024-03-23T15:09:44;12.43;;;2.17;;
61200;SDS011;47065;52.898;6.992;2024-03-23T15:12:10;9.77;;;2.38;;
61200;SDS011;47065;52.898;6.992;2024-03-23T15:14:36;10.85;;;2.33;;
61200;SDS011;47065;52.898;6.992;2024-03-23T15:17:02;8.27;;;2.60;;
61200;SDS011;47065;52.898;6.992;2024-03-23T15:19:32;8.15;;;1.75;;
61200;SDS011;47065;52.898;6.992;2024-03-23T15:21:58;6.22;;;2.15;;
61200;SDS011;47065;52.898;6.992;2024-03-23T15:24:23;5.88;;;1.30;;
61200;SDS011;47065;52.898;6.992;2024-03-23T15:26:50;6.00;;;1.27;;
61200;SDS011;47065;52.898;6.992;2024-03-23T15:29:17;7.70;;;1.40;;
61200;SDS011;47065;52.898;6.992;2024-03-23T15:31:43;4.53;;;1.42;;
61200;SDS011;47065;52.898;6.992;2024-03-23T15:34:08;6.72;;;1.15;;
61200;SDS011;47065;52.898;6.992;2024-03-23T15:36:37;4.10;;;1.38;;
61200;SDS011;47065;52.898;6.992;2024-03-23T15:39:06;7.07;;;1.48;;
61200;SDS011;47065;52.898;6.992;2024-03-23T15:41:32;8.77;;;1.17;;